Sleepy Hollow, Illinois
Current Conditions -  °F | °C
As of 3:52 AM on Monday 20 Oct 2014 (Local Time) from KDPA Reporting Station
Clear Clear  
Wind Chill: 43°   Ceiling: Unl
Heat Index: 46°   Visibility: 10mi
Dew Point: 43°   Wind: 6mph
Humidity: 89%   Direction: 190°S
Pressure: 29.83"   Gusts: NA
Location:  42.1081°N, 88.3234°W
Report Text: KDPA 200852Z 19005KT 10SM CLR 08/06 A2983 RMK AO2 SLP102 T00780061 56018
Loading
Personal Weather Stations






























Interactive Weather Map
Tropical Storm Tracking
New forecast layout! Learn more

10-Day Weather Forecast

Advertisements
Track Severe Weather on mobile